Eldoret, Eldoret International Airport (HKEL)

NameEldoret International Airport
CityEldoret
CountryKenya
ICAOHKEL
IATAEDL
Altitude2150 m
CoordinatesGoogle Map
Live Air TrafficLiveATC.net
METARHKEL 251700Z 18004KT 9999 FEW016 FEW019CB BKN080 17/14 Q1023
2020-04-25 17:00:00 Wind: South (180°) 2.06 m/s - Visibility: > 10000 m - Temperature: 17 °C - Dew point: 14 °C - Humidity: 82.6% - Pressure: 1023 hPa

Sorry, no flights used the airport in this database.